createdAt,value
2018-09-28T00:04:24.325Z,32.49
2018-09-28T00:09:27.600Z,33.21
2018-09-28T00:14:30.871Z,33.01
2018-09-28T00:19:34.131Z,32.83
2018-09-28T00:24:37.608Z,33.22
2018-09-28T00:29:40.865Z,33.46
2018-09-28T00:34:44.139Z,33.13
2018-09-28T00:39:47.457Z,33.33
2018-09-28T00:44:50.712Z,33.16
2018-09-28T00:49:53.991Z,33.57
2018-09-28T00:54:57.280Z,33.50
2018-09-28T01:00:00.548Z,33.78
2018-09-28T01:05:04.104Z,33.58
2018-09-28T01:10:07.373Z,33.55
2018-09-28T01:15:10.641Z,33.23
2018-09-28T01:20:13.908Z,33.20
2018-09-28T01:25:17.174Z,33.52
2018-09-28T01:30:20.472Z,33.13
2018-09-28T01:35:23.732Z,33.25
2018-09-28T01:40:27.045Z,33.42
2018-09-28T01:45:30.316Z,33.61
2018-09-28T01:50:33.586Z,33.56
2018-09-28T01:55:36.899Z,33.34
2018-09-28T02:00:40.160Z,33.19
2018-09-28T02:05:43.415Z,33.13
2018-09-28T02:10:46.688Z,33.14
2018-09-28T02:15:49.984Z,33.10
2018-09-28T02:20:53.268Z,33.32
2018-09-28T02:25:56.553Z,33.43
2018-09-28T02:30:59.825Z,33.12
2018-09-28T02:36:03.114Z,33.43
2018-09-28T02:41:06.568Z,33.25
2018-09-28T02:46:09.831Z,32.81
2018-09-28T02:51:13.120Z,33.43
2018-09-28T02:56:16.384Z,33.34
2018-09-28T03:01:19.733Z,33.09
2018-09-28T03:06:23.275Z,33.48
2018-09-28T03:11:26.468Z,33.28
2018-09-28T03:16:29.746Z,33.08
2018-09-28T03:21:33.008Z,33.13
2018-09-28T03:26:36.308Z,33.01
2018-09-28T03:31:39.572Z,33.28
2018-09-28T03:36:42.849Z,33.66
2018-09-28T03:41:46.113Z,33.12
2018-09-28T03:46:49.549Z,33.17
2018-09-28T03:51:52.816Z,33.07
2018-09-28T03:56:56.076Z,33.05
2018-09-28T04:01:59.373Z,32.94
2018-09-28T04:07:02.637Z,33.26
2018-09-28T04:12:05.903Z,33.27
2018-09-28T04:17:09.226Z,33.16
2018-09-28T04:22:12.544Z,33.16
2018-09-28T04:27:15.841Z,32.75
2018-09-28T04:32:19.109Z,32.43
2018-09-28T04:37:22.372Z,32.66
2018-09-28T04:42:25.640Z,32.72
2018-09-28T04:47:28.908Z,33.23
2018-09-28T04:52:32.213Z,33.44
2018-09-28T04:57:35.476Z,33.23
2018-09-28T05:02:38.749Z,33.17
2018-09-28T05:07:42.027Z,33.59
2018-09-28T05:12:45.556Z,33.29
2018-09-28T05:17:48.825Z,33.60
2018-09-28T05:22:52.303Z,33.34
2018-09-28T05:27:55.647Z,33.17
2018-09-28T05:32:59.164Z,33.35
2018-09-28T05:38:02.277Z,33.82
2018-09-28T05:43:05.576Z,33.16
2018-09-28T05:48:08.849Z,33.27
2018-09-28T05:53:12.136Z,33.46
2018-09-28T05:58:20.907Z,33.18
2018-09-28T06:03:24.192Z,33.46
2018-09-28T06:08:27.456Z,33.89
2018-09-28T06:13:30.727Z,34.24
2018-09-28T06:18:35.788Z,33.71
2018-09-28T06:23:39.145Z,34.21
2018-09-28T06:28:42.413Z,34.55
2018-09-28T06:33:45.680Z,34.34
2018-09-28T06:38:49.258Z,36.07
2018-09-28T06:43:52.803Z,36.57
2018-09-28T06:48:56.256Z,35.28
2018-09-28T06:53:59.716Z,34.77
2018-09-28T06:59:03.056Z,34.58
2018-09-28T07:04:06.348Z,34.55
2018-09-28T07:09:11.687Z,34.84
2018-09-28T07:14:14.963Z,35.00
2018-09-28T07:19:18.308Z,35.21
2018-09-28T07:24:21.573Z,35.61
2018-09-28T07:29:24.868Z,36.35
2018-09-28T07:34:28.144Z,36.18
2018-09-28T07:39:31.431Z,36.27
2018-09-28T07:44:34.718Z,36.69
2018-09-28T07:49:37.983Z,37.08
2018-09-28T07:54:41.259Z,37.06
2018-09-28T07:59:44.541Z,36.95
2018-09-28T08:04:47.819Z,37.30
2018-09-28T08:09:51.076Z,37.93
2018-09-28T08:14:54.350Z,38.46
2018-09-28T08:19:57.664Z,38.78
2018-09-28T08:25:00.940Z,38.56
2018-09-28T08:30:04.296Z,39.27
2018-09-28T08:35:07.555Z,38.30
2018-09-28T08:40:10.840Z,38.92
2018-09-28T08:45:14.116Z,39.13
2018-09-28T08:50:17.381Z,39.09
2018-09-28T08:55:20.643Z,40.91
2018-09-28T09:00:24.004Z,40.76
2018-09-28T09:05:27.281Z,40.21
2018-09-28T09:10:30.541Z,40.23
2018-09-28T09:15:33.836Z,40.40
2018-09-28T09:20:37.099Z,40.49
2018-09-28T09:25:40.383Z,40.58
2018-09-28T09:30:43.639Z,40.22
2018-09-28T09:35:46.905Z,39.78
2018-09-28T09:40:50.177Z,40.05
2018-09-28T09:45:53.448Z,39.99
2018-09-28T09:50:56.711Z,40.44
2018-09-28T09:56:00.018Z,40.23
2018-09-28T10:01:05.995Z,40.36
2018-09-28T10:06:10.280Z,40.53
2018-09-28T10:11:13.552Z,39.91
2018-09-28T10:16:16.875Z,40.12
2018-09-28T10:21:20.326Z,39.94
2018-09-28T10:26:23.601Z,40.59
2018-09-28T10:31:26.940Z,39.96
2018-09-28T10:36:30.380Z,40.39
2018-09-28T10:41:33.844Z,41.43
2018-09-28T10:46:37.133Z,41.34
2018-09-28T10:51:40.471Z,40.69
2018-09-28T10:56:43.701Z,40.82
2018-09-28T11:01:46.987Z,41.63
2018-09-28T11:06:50.256Z,41.16
2018-09-28T11:11:53.524Z,41.49
2018-09-28T11:16:56.804Z,41.49
2018-09-28T11:22:00.261Z,41.11
2018-09-28T11:27:03.708Z,41.65
2018-09-28T11:32:11.650Z,41.48
2018-09-28T11:37:15.440Z,41.38
2018-09-28T11:42:18.700Z,41.56
2018-09-28T11:47:21.989Z,41.38
2018-09-28T11:52:25.384Z,41.30
2018-09-28T12:20:00.433Z,40.65
2018-09-28T12:25:03.785Z,41.33
2018-09-28T12:30:07.474Z,40.96
2018-09-28T12:35:10.749Z,40.03
2018-09-28T12:40:14.124Z,39.79
2018-09-28T12:45:17.583Z,39.29
2018-09-28T12:50:20.924Z,38.72
2018-09-28T12:55:25.074Z,38.16
2018-09-28T13:00:28.435Z,38.16
2018-09-28T13:05:31.630Z,37.85
2018-09-28T13:10:38.943Z,37.58
2018-09-28T13:15:42.280Z,37.41
2018-09-28T13:20:45.599Z,38.36
2018-09-28T13:25:48.843Z,37.73
2018-09-28T13:30:52.203Z,36.98
2018-09-28T13:35:55.477Z,36.80
2018-09-28T13:40:58.740Z,36.80
2018-09-28T13:46:02.223Z,36.68
2018-09-28T13:51:05.556Z,36.25
2018-09-28T13:56:08.844Z,36.33
2018-09-28T14:01:12.128Z,36.25
2018-09-28T14:06:15.410Z,36.16
2018-09-28T14:11:18.699Z,35.60
2018-09-28T14:16:21.989Z,35.19
2018-09-28T14:21:25.260Z,35.05
2018-09-28T14:26:28.553Z,35.27
2018-09-28T14:31:31.832Z,35.80
2018-09-28T14:36:35.107Z,34.71
2018-09-28T14:41:38.396Z,35.11
2018-09-28T14:46:41.738Z,35.04
2018-09-28T14:51:44.952Z,35.40
2018-09-28T14:56:48.383Z,35.12
2018-09-28T15:01:51.512Z,35.06
2018-09-28T15:06:54.861Z,35.38
2018-09-28T15:11:58.064Z,35.21
2018-09-28T15:17:01.329Z,35.45
2018-09-28T15:22:04.636Z,35.19
2018-09-28T15:27:07.909Z,34.70
2018-09-28T15:32:11.172Z,35.00
2018-09-28T15:37:14.445Z,35.11
2018-09-28T15:42:17.754Z,34.99
2018-09-28T15:47:21.033Z,34.40
2018-09-28T15:52:24.325Z,34.02
2018-09-28T15:57:27.603Z,34.37
2018-09-28T16:02:30.937Z,34.28
2018-09-28T16:07:34.409Z,34.41
2018-09-28T16:12:37.860Z,33.94
2018-09-28T16:17:41.183Z,34.35
2018-09-28T16:22:44.531Z,34.24
2018-09-28T16:27:47.796Z,33.47
2018-09-28T16:32:51.265Z,33.65
2018-09-28T16:37:54.540Z,33.49
2018-09-28T16:42:57.998Z,33.59
2018-09-28T16:48:01.745Z,33.48
2018-09-28T16:53:05.065Z,33.52
2018-09-28T16:58:08.352Z,34.09
2018-09-28T17:03:11.632Z,34.28
2018-09-28T17:08:14.892Z,33.88
2018-09-28T17:13:18.154Z,34.02
2018-09-28T17:18:21.524Z,33.91
2018-09-28T17:23:24.789Z,33.86
2018-09-28T17:28:28.114Z,33.76
2018-09-28T17:33:31.397Z,34.08
2018-09-28T17:38:34.663Z,33.79
2018-09-28T17:43:37.945Z,34.01
2018-09-28T17:48:41.253Z,34.57
2018-09-28T17:53:44.529Z,34.70
2018-09-28T17:58:47.816Z,34.80
2018-09-28T18:03:51.091Z,34.22
2018-09-28T18:08:54.355Z,34.57
2018-09-28T18:13:57.619Z,35.07
2018-09-28T18:19:00.885Z,34.59
2018-09-28T18:24:04.169Z,35.04
2018-09-28T18:29:07.457Z,34.71
2018-09-28T18:34:10.720Z,34.62
2018-09-28T18:39:14.030Z,35.06
2018-09-28T18:44:17.537Z,35.19
2018-09-28T18:49:20.801Z,35.34
2018-09-28T18:54:25.245Z,35.51
2018-09-28T18:59:28.531Z,36.01
2018-09-28T19:04:31.801Z,35.87
2018-09-28T19:09:37.175Z,35.94
2018-09-28T19:14:40.795Z,36.12
2018-09-28T19:19:44.081Z,36.51
2018-09-28T19:24:47.352Z,36.53
2018-09-28T19:29:50.676Z,36.67
2018-09-28T19:34:54.052Z,36.59
2018-09-28T19:39:57.312Z,36.40
2018-09-28T19:45:00.673Z,36.35
2018-09-28T19:50:04.459Z,36.30
2018-09-28T19:55:07.772Z,35.91
2018-09-28T20:00:11.094Z,35.81
2018-09-28T20:05:14.822Z,36.07
2018-09-28T20:10:18.106Z,36.52
2018-09-28T20:15:21.367Z,36.41
2018-09-28T20:20:25.264Z,35.95
2018-09-28T20:25:28.688Z,36.50
2018-09-28T20:30:32.908Z,37.03
2018-09-28T20:35:36.252Z,37.27
2018-09-28T20:40:39.659Z,37.17
2018-09-28T20:45:42.937Z,37.20
2018-09-28T20:50:46.212Z,37.34
2018-09-28T20:55:49.537Z,37.39
2018-09-28T21:00:52.958Z,37.33
2018-09-28T21:05:56.255Z,37.81
2018-09-28T21:11:00.220Z,37.78
2018-09-28T21:16:03.497Z,37.92
2018-09-28T21:21:07.263Z,38.03
2018-09-28T21:26:10.936Z,37.80
2018-09-28T21:31:14.334Z,37.55
2018-09-28T21:36:17.701Z,37.71
2018-09-28T21:41:21.087Z,38.04
2018-09-28T21:46:24.716Z,38.01
2018-09-28T21:51:28.612Z,38.04
2018-09-28T21:56:31.881Z,37.79
2018-09-28T22:01:35.180Z,38.12
2018-09-28T22:06:38.489Z,37.85
2018-09-28T22:11:41.813Z,38.47
2018-09-28T22:16:45.261Z,38.05
2018-09-28T22:21:48.925Z,38.31
2018-09-28T22:26:52.455Z,38.04
2018-09-28T22:31:55.841Z,38.17
2018-09-28T22:36:59.168Z,38.63
2018-09-28T22:42:02.777Z,38.44
2018-09-28T22:47:06.271Z,38.17
2018-09-28T22:52:09.695Z,38.27
2018-09-28T22:57:13.118Z,38.26
2018-09-28T23:02:16.417Z,38.75
2018-09-28T23:07:19.688Z,38.34
2018-09-28T23:12:23.064Z,38.82
2018-09-28T23:17:26.360Z,38.65
2018-09-28T23:22:29.624Z,38.57
2018-09-28T23:27:32.981Z,38.73
2018-09-28T23:32:36.360Z,38.70
2018-09-28T23:37:39.631Z,38.61
2018-09-28T23:42:42.908Z,38.80
2018-09-28T23:47:46.299Z,38.58
2018-09-28T23:52:49.513Z,38.72
2018-09-28T23:57:52.783Z,38.97
